aviador You're here:

KIPJ Decoded Metar

LINCOLNTON in NC, USA
Report Time2018-02-25 15:05:00
UTC Time2018-02-25 15:04:49
Flight Rules mvfr MVFR
Wind240° at 06 kt
W.Decomp.*RWY 23: 5.8 kt HW 1.7 kt RCW
W.Rank240° ranks 3
Current wind is below 240° avg. (6.0)
Visibility8047 m
Phenomena:Heavy Rain
Clouds:Scattered 018 Hf
Broken 044 Hf
Overcast 050 Hf
Expected CloudBase > 800 ft AGL from Temp-Dew spread
Ceiling4,400 ft
Temp17°C (ISA +4)
Dew Point15°C (88% RH)
AAT16.5°C
QNH1019 hPa
Density Alt1,345 ft
Elevation876 ft
Report Wrong Elevation
Raw Report
KIPJ 251505Z AUTO 24006KT 5SM +RA SCT018 BKN044 OVC050 17/15 A3008
RMK AO2 T01670154=

Extra information for KIPJ:More info

Metar Taf Metar & Taf Last 4 Metars F.Rules Stats Wind Profile Meteogram Temp Stats Airport Information Weather charts Add Link Nearby VenuesMetar ALERT Operation Metar Decoded Social comments

AIRNAV info for KIPJ